Albion, Illinois
Current Conditions -  °F | °C
As of 11:35 AM on Monday 22 Dec 2014 (Local Time) from KFWC Reporting Station
Drizzle Drizzle  
Wind Chill: 41°   Ceiling: 1000
Heat Index: 46°   Visibility: 5mi
Dew Point: 44°   Wind: 9mph
Humidity: 92%   Direction: 130°SE
Pressure: 29.75"   Gusts: NA
Location:  38.38°N, 88.06°W
Report Text: KFWC 221735Z AUTO 13008KT 5SM DZ OVC010 08/07 A2975 RMK AO1 T00770065
Loading
Personal Weather Stations






























Interactive Weather Map New forecast layout! Learn more

10-Day Weather Forecast

Advertisements
Track Severe Weather on mobile